createdAt,value
2018-08-19T00:03:12.182Z,12.87
2018-08-19T00:08:15.810Z,12.50
2018-08-19T00:13:20.834Z,14.97
2018-08-19T00:18:24.743Z,9.70
2018-08-19T00:23:34.843Z,10.83
2018-08-19T00:28:41.073Z,12.10
2018-08-19T00:33:45.809Z,11.73
2018-08-19T00:38:49.535Z,10.97
2018-08-19T00:43:53.210Z,11.50
2018-08-19T00:48:57.690Z,11.40
2018-08-19T00:54:01.350Z,11.87
2018-08-19T00:59:05.410Z,16.93
2018-08-19T01:04:10.456Z,12.07
2018-08-19T01:09:14.241Z,11.97
2018-08-19T01:14:17.932Z,15.30
2018-08-19T01:19:22.563Z,10.50
2018-08-19T01:24:26.297Z,11.37
2018-08-19T01:29:36.123Z,13.40
2018-08-19T01:34:42.627Z,10.30
2018-08-19T01:39:47.098Z,13.07
2018-08-19T01:44:50.778Z,10.60
2018-08-19T01:49:54.641Z,13.17
2018-08-19T01:54:58.283Z,11.67
2018-08-19T02:00:02.471Z,11.50
2018-08-19T02:05:06.862Z,11.77
2018-08-19T02:10:10.589Z,11.57
2018-08-19T02:15:14.819Z,12.27
2018-08-19T02:20:19.292Z,11.40
2018-08-19T02:25:24.049Z,11.40
2018-08-19T02:30:27.710Z,10.93
2018-08-19T02:35:31.600Z,11.50
2018-08-19T02:40:35.588Z,12.10
2018-08-19T02:45:41.566Z,15.80
2018-08-19T02:50:45.686Z,15.13
2018-08-19T02:55:51.323Z,15.30
2018-08-19T03:00:55.049Z,12.10
2018-08-19T03:06:02.712Z,11.30
2018-08-19T03:11:06.991Z,12.80
2018-08-19T03:16:10.575Z,12.13
2018-08-19T03:21:14.883Z,12.10
2018-08-19T03:26:18.715Z,12.83
2018-08-19T03:31:22.567Z,13.40
2018-08-19T03:36:26.314Z,12.30
2018-08-19T03:41:30.432Z,12.83
2018-08-19T03:46:34.268Z,14.40
2018-08-19T03:51:37.929Z,13.07
2018-08-19T03:56:43.651Z,13.77
2018-08-19T04:01:47.583Z,13.50
2018-08-19T04:06:51.647Z,12.20
2018-08-19T04:12:06.252Z,13.80
2018-08-19T04:17:15.003Z,14.00
2018-08-19T04:22:18.964Z,14.53
2018-08-19T04:27:22.950Z,15.27
2018-08-19T04:32:30.365Z,14.33
2018-08-19T04:37:35.996Z,15.80
2018-08-19T04:42:39.573Z,14.63
2018-08-19T04:47:43.175Z,14.87
2018-08-19T04:52:46.851Z,12.20
2018-08-19T04:57:50.487Z,13.30
2018-08-19T05:02:54.088Z,13.37
2018-08-19T05:07:57.782Z,14.10
2018-08-19T05:13:01.391Z,16.00
2018-08-19T05:18:05.528Z,15.47
2018-08-19T05:23:11.311Z,13.20
2018-08-19T05:28:18.464Z,14.23
2018-08-19T05:33:22.135Z,15.37
2018-08-19T05:38:26.214Z,15.90
2018-08-19T05:43:30.487Z,17.00
2018-08-19T05:48:34.079Z,14.63
2018-08-19T05:53:42.403Z,15.30
2018-08-19T05:58:45.983Z,14.43
2018-08-19T06:03:49.596Z,16.83
2018-08-19T06:08:54.717Z,15.30
2018-08-19T06:13:58.446Z,15.13
2018-08-19T06:19:02.115Z,15.33
2018-08-19T06:24:05.964Z,16.47
2018-08-19T06:29:11.205Z,17.30
2018-08-19T06:34:14.834Z,18.80
2018-08-19T06:39:18.467Z,15.07
2018-08-19T06:44:22.117Z,17.37
2018-08-19T06:49:25.957Z,18.60
2018-08-19T06:54:29.618Z,14.73
2018-08-19T06:59:33.263Z,13.00
2018-08-19T07:04:42.909Z,17.00
2018-08-19T07:09:47.430Z,12.67
2018-08-19T07:14:51.673Z,15.20
2018-08-19T07:19:57.274Z,15.57
2018-08-19T07:25:03.055Z,17.17
2018-08-19T07:30:07.007Z,16.07
2018-08-19T07:35:12.572Z,17.37
2018-08-19T07:40:16.324Z,16.37
2018-08-19T07:45:20.585Z,17.00
2018-08-19T07:50:52.691Z,16.67
2018-08-19T07:56:00.230Z,15.93
2018-08-19T08:01:05.870Z,14.17
2018-08-19T08:06:11.587Z,20.50
2018-08-19T08:11:28.630Z,16.60
2018-08-19T08:16:39.084Z,16.27
2018-08-19T08:21:43.234Z,15.70
2018-08-19T08:26:58.134Z,12.70
2018-08-19T08:32:01.941Z,13.90
2018-08-19T08:37:06.860Z,13.17
2018-08-19T08:42:10.763Z,12.60
2018-08-19T08:47:14.415Z,14.30
2018-08-19T08:52:24.295Z,13.67
2018-08-19T08:57:28.155Z,13.37
2018-08-19T09:02:31.907Z,15.90
2018-08-19T09:07:36.207Z,14.03
2018-08-19T09:12:45.670Z,15.87
2018-08-19T09:17:49.367Z,14.60
2018-08-19T09:22:53.168Z,16.60
2018-08-19T09:27:57.174Z,11.70
2018-08-19T09:33:02.209Z,12.17
2018-08-19T09:43:33.842Z,11.23
2018-08-19T09:48:37.634Z,13.27
2018-08-19T09:53:41.340Z,13.73
2018-08-19T09:58:50.149Z,10.67
2018-08-19T10:03:53.867Z,9.80
2018-08-19T10:08:57.497Z,11.40
2018-08-19T10:14:03.811Z,13.57
2018-08-19T10:19:07.589Z,11.40
2018-08-19T10:24:25.444Z,10.30
2018-08-19T10:29:29.142Z,10.23
2018-08-19T10:34:36.943Z,12.60
2018-08-19T10:39:41.502Z,14.37
2018-08-19T10:44:46.610Z,13.60
2018-08-19T10:49:58.255Z,10.40
2018-08-19T10:55:02.328Z,9.30
2018-08-19T11:00:10.170Z,10.03
2018-08-19T11:05:14.219Z,9.17
2018-08-19T11:10:34.174Z,11.80
2018-08-19T11:15:55.471Z,9.23
2018-08-19T11:21:02.779Z,11.20
2018-08-19T11:26:07.235Z,11.37
2018-08-19T11:31:23.043Z,8.33
2018-08-19T11:36:33.080Z,9.97
2018-08-19T11:41:36.737Z,15.07
2018-08-19T11:46:41.376Z,13.50
2018-08-19T11:51:51.679Z,7.87
2018-08-19T11:57:01.813Z,8.23
2018-08-19T12:02:10.902Z,10.60
2018-08-19T12:07:30.331Z,11.20
2018-08-19T12:12:46.340Z,8.60
2018-08-19T12:17:50.303Z,8.60
2018-08-19T12:22:54.316Z,12.80
2018-08-19T12:27:58.061Z,8.80
2018-08-19T12:33:13.233Z,13.27
2018-08-19T12:38:17.640Z,10.20
2018-08-19T12:43:24.546Z,8.03
2018-08-19T12:48:28.520Z,9.53
2018-08-19T12:53:33.472Z,10.47
2018-08-19T12:58:39.269Z,9.10
2018-08-19T13:03:43.587Z,9.07
2018-08-19T13:08:47.556Z,8.57
2018-08-19T13:13:51.434Z,7.03
2018-08-19T13:18:55.194Z,8.07
2018-08-19T13:23:59.121Z,8.30
2018-08-19T13:29:03.068Z,7.67
2018-08-19T13:34:07.004Z,12.13
2018-08-19T13:39:10.768Z,7.57
2018-08-19T13:44:14.495Z,11.47
2018-08-19T13:49:23.809Z,9.30
2018-08-19T13:54:28.107Z,7.43
2018-08-19T13:59:32.764Z,7.50
2018-08-19T14:04:36.964Z,8.60
2018-08-19T14:09:41.062Z,6.40
2018-08-19T14:14:45.659Z,8.80
2018-08-19T14:19:49.402Z,9.40
2018-08-19T14:24:53.528Z,13.30
2018-08-19T14:29:57.523Z,6.00
2018-08-19T14:35:03.031Z,9.63
2018-08-19T14:40:08.551Z,14.60
2018-08-19T14:45:12.405Z,6.20
2018-08-19T14:50:18.325Z,7.20
2018-08-19T14:55:22.199Z,6.10
2018-08-19T15:00:26.045Z,8.27
2018-08-19T15:05:29.864Z,6.73
2018-08-19T15:10:34.953Z,7.63
2018-08-19T15:16:00.661Z,6.90
2018-08-19T15:26:33.944Z,4.83
2018-08-19T15:31:38.037Z,7.13
2018-08-19T15:36:47.837Z,5.40
2018-08-19T15:41:51.645Z,8.17
2018-08-19T15:47:11.666Z,7.80
2018-08-19T15:52:24.248Z,6.30
2018-08-19T15:57:32.464Z,10.10
2018-08-19T16:02:37.267Z,7.00
2018-08-19T16:07:41.306Z,6.73
2018-08-19T16:12:51.897Z,7.57
2018-08-19T16:18:00.138Z,5.67
2018-08-19T16:23:05.433Z,6.97
2018-08-19T16:28:09.708Z,6.70
2018-08-19T16:33:14.329Z,5.60
2018-08-19T16:38:18.597Z,6.07
2018-08-19T16:43:33.084Z,5.47
2018-08-19T16:48:36.966Z,5.90
2018-08-19T16:53:40.705Z,6.07
2018-08-19T16:58:44.559Z,10.03
2018-08-19T17:03:48.486Z,5.60
2018-08-19T17:08:53.358Z,7.93
2018-08-19T17:13:57.343Z,5.40
2018-08-19T17:19:01.095Z,6.13
2018-08-19T17:24:04.985Z,6.20
2018-08-19T17:29:14.384Z,6.50
2018-08-19T17:34:20.598Z,6.00
2018-08-19T17:39:25.049Z,9.43
2018-08-19T17:44:28.828Z,7.43
2018-08-19T17:49:32.735Z,7.20
2018-08-19T17:54:38.219Z,8.40
2018-08-19T17:59:42.240Z,6.03
2018-08-19T18:04:46.426Z,7.60
2018-08-19T18:09:56.657Z,6.17
2018-08-19T18:15:01.379Z,8.37
2018-08-19T18:20:39.150Z,7.73
2018-08-19T18:25:45.809Z,12.13
2018-08-19T18:30:54.206Z,12.60
2018-08-19T18:35:58.931Z,6.87
2018-08-19T18:41:04.894Z,6.53
2018-08-19T18:46:09.095Z,7.27
2018-08-19T18:51:14.598Z,9.97
2018-08-19T18:56:18.740Z,8.60
2018-08-19T19:01:22.522Z,7.00
2018-08-19T19:06:26.467Z,7.73
2018-08-19T19:11:31.450Z,8.57
2018-08-19T19:16:38.095Z,13.70
2018-08-19T19:21:43.176Z,7.43
2018-08-19T19:26:47.240Z,7.53
2018-08-19T19:31:53.488Z,7.73
2018-08-19T19:36:57.647Z,13.10
2018-08-19T19:42:09.326Z,7.73
2018-08-19T19:47:13.038Z,8.47
2018-08-19T19:52:16.860Z,8.40
2018-08-19T19:57:20.890Z,7.53
2018-08-19T20:02:30.388Z,9.80
2018-08-19T20:07:34.883Z,8.57
2018-08-19T20:12:39.371Z,8.20
2018-08-19T20:17:43.475Z,13.90
2018-08-19T20:22:47.603Z,15.83
2018-08-19T20:27:56.091Z,11.73
2018-08-19T20:33:00.066Z,7.80
2018-08-19T20:38:03.876Z,7.40
2018-08-19T20:43:15.534Z,7.67
2018-08-19T20:48:20.842Z,9.60
2018-08-19T20:53:24.713Z,10.93
2018-08-19T20:58:28.438Z,8.07
2018-08-19T21:03:32.235Z,8.07
2018-08-19T21:08:35.938Z,7.30
2018-08-19T21:13:39.623Z,8.50
2018-08-19T21:18:43.238Z,7.53
2018-08-19T21:23:46.882Z,8.83
2018-08-19T21:28:56.290Z,7.90
2018-08-19T21:34:00.338Z,9.77
2018-08-19T21:39:31.414Z,9.73
2018-08-19T21:45:04.836Z,8.33
2018-08-19T21:50:09.585Z,11.20
2018-08-19T21:55:13.291Z,8.40
2018-08-19T22:00:17.216Z,11.67
2018-08-19T22:05:21.297Z,12.73
2018-08-19T22:10:25.595Z,9.20
2018-08-19T22:15:32.942Z,9.33
2018-08-19T22:20:37.805Z,7.67
2018-08-19T22:25:42.401Z,7.43
2018-08-19T22:30:46.334Z,8.40
2018-08-19T22:35:51.454Z,11.43
2018-08-19T22:40:55.100Z,9.70
2018-08-19T22:45:58.730Z,8.13
2018-08-19T22:51:02.424Z,8.53
2018-08-19T22:56:07.485Z,8.10
2018-08-19T23:01:11.310Z,8.50
2018-08-19T23:06:15.396Z,10.13
2018-08-19T23:11:19.032Z,11.87
2018-08-19T23:16:23.288Z,9.10
2018-08-19T23:21:27.572Z,6.73
2018-08-19T23:26:31.406Z,7.90
2018-08-19T23:31:35.068Z,9.27
2018-08-19T23:36:40.275Z,8.00
2018-08-19T23:41:44.447Z,7.40
2018-08-19T23:46:48.055Z,7.93
2018-08-19T23:51:51.702Z,8.10
2018-08-19T23:56:55.538Z,8.53
